Time;durP1;ratioP1;P1;durP2;ratioP2;P2;SDS_P1;SDS_P2;PMS_P1;PMS_P2;Temp;Humidity;BMP_temperature;BMP_pressure;BME280_temperature;BME280_humidity;BME280_pressure;Samples;Min_cycle;Max_cycle;Signal;HPM_P1;HPM_P2
2023/10/02 00:06:19;;;;;;;;;;;;;;;11.57;92.71;100159.33;435375;1254;139490;-61
2023/10/02 00:16:25;;;;;;;7.10;5.50;;;;;;;11.60;92.60;100153.01;435692;1255;126751;-61
2023/10/02 00:26:35;;;;;;;9.80;6.40;;;;;;;11.63;92.45;100149.66;435653;1256;140803;-61
2023/10/02 00:36:40;;;;;;;11.00;6.30;;;;;;;11.66;92.18;100141.77;435212;1256;140289;-60
2023/10/02 00:46:46;;;;;;;7.80;5.80;;;;;;;11.70;92.44;100141.54;435419;1254;141316;-62
2023/10/02 00:56:52;;;;;;;6.50;5.50;;;;;;;11.71;92.79;100157.82;435578;1256;139855;-60
2023/10/02 01:07:11;;;;;;;9.50;7.20;;;;;;;11.71;93.13;100162.75;435393;1256;139683;-61
2023/10/02 01:17:20;;;;;;;8.00;6.20;;;;;;;11.71;93.42;100163.74;436082;1256;140785;-62
2023/10/02 01:27:40;;;;;;;7.50;5.60;;;;;;;11.71;93.56;100168.66;435419;1256;140136;-60
2023/10/02 01:37:46;;;;;;;5.80;4.60;;;;;;;11.72;93.71;100169.52;438692;1255;140962;-60
2023/10/02 01:47:52;;;;;;;7.60;5.90;;;;;;;11.72;93.59;100170.02;437078;1255;141390;-61
2023/10/02 01:58:16;;;;;;;8.50;6.40;;;;;;;11.72;93.58;100165.81;435465;1256;140399;-62
2023/10/02 02:08:23;;;;;;;15.30;6.70;;;;;;;11.70;93.75;100172.10;435541;1254;139183;-61
2023/10/02 02:18:31;;;;;;;9.00;5.90;;;;;;;11.70;94.18;100161.92;435372;1256;140594;-62
2023/10/02 02:28:43;;;;;;;10.00;5.80;;;;;;;11.70;93.95;100159.41;435172;1256;139815;-62
2023/10/02 02:39:05;;;;;;;7.80;5.00;;;;;;;11.72;93.60;100156.53;435770;1256;141044;-62
2023/10/02 02:49:11;;;;;;;6.70;5.30;;;;;;;11.74;93.40;100157.46;436168;1257;139557;-60
2023/10/02 02:59:18;;;;;;;10.00;6.30;;;;;;;11.76;93.33;100150.30;435361;1251;141518;-60
2023/10/02 03:09:24;;;;;;;6.60;4.80;;;;;;;11.78;93.40;100149.66;436129;1257;141339;-61
2023/10/02 03:19:30;;;;;;;11.50;5.10;;;;;;;11.79;93.31;100150.33;436884;1255;141697;-61
2023/10/02 03:29:36;;;;;;;7.10;4.70;;;;;;;11.80;93.36;100163.94;435745;1251;141514;-62
2023/10/02 03:40:13;;;;;;;8.60;5.60;;;;;;;11.81;93.46;100159.68;435592;1256;141195;-62
2023/10/02 03:50:20;;;;;;;9.70;4.30;;;;;;;11.80;93.08;100149.54;435762;1256;139995;-60
2023/10/02 04:00:28;;;;;;;8.30;5.70;;;;;;;11.84;92.98;100159.67;435945;1256;141044;-61
2023/10/02 04:10:51;;;;;;;12.20;5.30;;;;;;;11.88;93.59;100162.23;436050;1255;141193;-60
2023/10/02 04:21:05;;;;;;;12.50;5.30;;;;;;;11.87;93.93;100154.35;436387;1256;141477;-63
2023/10/02 04:31:20;;;;;;;9.40;5.10;;;;;;;11.86;94.28;100147.96;436452;1256;140008;-61
2023/10/02 04:41:31;;;;;;;10.20;5.10;;;;;;;11.85;94.36;100161.53;436647;1251;140400;-62
2023/10/02 04:51:44;;;;;;;7.80;5.30;;;;;;;11.86;94.45;100150.98;435677;1254;140573;-61
2023/10/02 05:02:17;;;;;;;9.10;5.30;;;;;;;11.85;94.42;100154.18;435482;1251;139728;-62
2023/10/02 05:12:22;;;;;;;7.60;5.20;;;;;;;11.90;94.67;100173.69;435353;1256;139691;-62
2023/10/02 05:22:30;;;;;;;8.70;5.00;;;;;;;11.97;95.01;100183.64;435389;1256;139461;-66
2023/10/02 05:32:36;;;;;;;8.10;4.90;;;;;;;12.08;94.99;100182.49;435633;1251;140169;-63
2023/10/02 05:42:49;;;;;;;8.80;5.50;;;;;;;12.17;94.79;100191.90;435802;1251;140500;-75
2023/10/02 05:52:56;;;;;;;8.20;5.00;;;;;;;12.31;94.72;100212.48;437081;1252;139889;-73
2023/10/02 06:03:02;;;;;;;11.30;6.00;;;;;;;12.48;94.78;100213.02;435656;1257;139674;-69
2023/10/02 06:13:09;;;;;;;11.90;5.90;;;;;;;12.75;94.67;100213.52;435530;1251;141075;-64
2023/10/02 06:23:22;;;;;;;10.40;5.00;;;;;;;13.13;94.27;100209.11;435794;1251;140294;-74
2023/10/02 06:33:31;;;;;;;6.90;4.80;;;;;;;14.03;94.26;100217.50;439223;1251;140421;-73
2023/10/02 06:43:37;;;;;;;8.30;4.10;;;;;;;15.33;92.79;100215.04;439277;1251;139230;-71
2023/10/02 06:53:44;;;;;;;6.00;4.10;;;;;;;17.53;91.43;100211.23;439159;1255;141037;-74
2023/10/02 07:03:52;;;;;;;8.30;5.10;;;;;;;19.37;85.45;100201.60;439480;1251;139248;-86
2023/10/02 07:14:04;;;;;;;11.20;4.60;;;;;;;19.49;80.65;100211.53;440480;1251;139782;-75
2023/10/02 07:24:27;;;;;;;8.00;5.20;;;;;;;19.31;78.90;100224.35;436294;1251;3855656;-73
2023/10/02 07:34:37;;;;;;;6.40;3.70;;;;;;;19.43;77.76;100217.20;439456;1251;138703;-78
2023/10/02 07:44:43;;;;;;;4.50;3.40;;;;;;;19.89;76.94;100224.20;439527;1255;140937;-79
2023/10/02 07:54:49;;;;;;;9.90;4.10;;;;;;;20.33;75.08;100220.85;439014;1251;138734;-67
2023/10/02 08:04:59;;;;;;;7.50;4.30;;;;;;;20.82;73.87;100222.73;435895;1256;139075;-68
2023/10/02 08:15:26;;;;;;;9.00;3.30;;;;;;;22.73;72.42;100212.74;437154;1251;138739;-72
2023/10/02 08:25:34;;;;;;;6.50;3.40;;;;;;;23.26;68.39;100207.31;438471;1254;140295;-73
2023/10/02 08:35:41;;;;;;;5.10;3.40;;;;;;;24.09;67.96;100206.39;436243;1251;139125;-75
2023/10/02 08:45:50;;;;;;;8.70;4.40;;;;;;;24.88;63.97;100208.23;439677;1252;138738;-77
2023/10/02 08:56:24;;;;;;;4.90;2.50;;;;;;;25.59;63.56;100207.05;439425;1255;140250;-71
2023/10/02 09:06:41;;;;;;;4.00;2.00;;;;;;;26.23;59.78;100206.49;439200;1253;139626;-76
2023/10/02 09:16:46;;;;;;;;;;;;;;;26.06;57.95;100209.77;439191;1250;138919;-75
2023/10/02 09:26:57;;;;;;;3.80;2.80;;;;;;;26.05;56.78;100198.70;439398;1251;126098;-71
2023/10/02 09:37:11;;;;;;;5.40;2.80;;;;;;;25.94;56.09;100192.88;439346;1250;138737;-67
2023/10/02 09:47:37;;;;;;;6.70;2.60;;;;;;;24.70;56.19;100194.55;439051;1254;139328;-67
2023/10/02 09:58:26;;;;;;;4.50;2.80;;;;;;;24.05;57.03;100183.90;436176;1255;138856;-72
2023/10/02 10:09:49;;;;;;;5.70;2.70;;;;;;;23.86;58.23;100174.39;437808;1251;138507;-71
2023/10/02 10:20:25;;;;;;;4.40;2.50;;;;;;;23.64;58.86;100176.04;435846;1254;138901;-74
2023/10/02 10:30:38;;;;;;;;;;;;;;;22.98;59.48;100175.64;438229;1253;140821;-73
2023/10/02 10:40:50;;;;;;;6.40;3.30;;;;;;;22.23;60.76;100169.89;439047;1251;125532;-69
2023/10/02 10:51:00;;;;;;;3.30;2.00;;;;;;;22.05;62.47;100161.55;437838;1251;138735;-77
2023/10/02 11:01:13;;;;;;;5.40;2.30;;;;;;;22.46;63.26;100160.73;439087;1251;139837;-69
2023/10/02 11:11:30;;;;;;;4.40;2.90;;;;;;;23.08;62.91;100152.13;436361;1251;139768;-72
2023/10/02 11:32:22;;;;;;;5.00;3.30;;;;;;;23.28;62.28;100139.56;438782;1254;138698;-76
2023/10/02 11:42:29;;;;;;;5.40;3.60;;;;;;;23.13;62.59;100134.08;439041;1251;140066;-66
2023/10/02 11:52:36;;;;;;;5.90;3.00;;;;;;;23.22;62.82;100131.23;438440;1253;139306;-77
2023/10/02 12:02:45;;;;;;;3.80;3.00;;;;;;;23.08;62.83;100130.27;439109;1253;139699;-74
2023/10/02 12:12:51;;;;;;;9.70;3.60;;;;;;;22.51;63.27;100123.51;438163;1250;138564;-68
2023/10/02 12:22:57;;;;;;;6.90;3.30;;;;;;;22.40;64.26;100120.54;435940;1255;138663;-65
2023/10/02 12:33:03;;;;;;;7.70;3.70;;;;;;;22.69;64.36;100109.98;435822;1254;141051;-65
2023/10/02 12:43:09;;;;;;;6.50;3.30;;;;;;;22.85;64.14;100100.13;436831;1251;140640;-71
2023/10/02 12:53:15;;;;;;;6.90;3.70;;;;;;;22.85;64.15;100099.16;436580;1251;142170;-64
2023/10/02 13:03:21;;;;;;;11.20;4.50;;;;;;;22.73;64.19;100092.50;435859;1255;138896;-67
2023/10/02 13:13:27;;;;;;;9.60;4.70;;;;;;;22.76;64.14;100089.98;435693;1254;139831;-67
2023/10/02 13:23:33;;;;;;;5.50;3.70;;;;;;;22.44;63.93;100081.90;435811;1251;139494;-67
2023/10/02 13:33:41;;;;;;;5.00;3.00;;;;;;;22.24;64.75;100075.52;435976;1251;142741;-63
2023/10/02 13:43:48;;;;;;;5.00;3.30;;;;;;;22.23;65.29;100069.50;436780;1251;139162;-65
2023/10/02 13:53:54;;;;;;;6.90;4.40;;;;;;;22.10;65.36;100061.95;437288;1255;138607;-67
2023/10/02 14:04:00;;;;;;;6.70;3.90;;;;;;;21.79;66.11;100052.67;437736;1255;139325;-69
2023/10/02 14:14:06;;;;;;;6.20;4.20;;;;;;;21.62;66.58;100052.13;436114;1254;138649;-62
2023/10/02 14:24:12;;;;;;;7.10;4.20;;;;;;;21.38;66.91;100048.45;436198;1255;139462;-71
2023/10/02 14:34:20;;;;;;;5.50;3.20;;;;;;;20.99;67.74;100036.05;436448;1254;139444;-68
2023/10/02 14:44:27;;;;;;;12.10;5.60;;;;;;;20.87;68.42;100030.50;436933;1255;139198;-66
2023/10/02 14:54:33;;;;;;;5.50;4.70;;;;;;;20.72;68.89;100030.67;436016;1254;139772;-67
2023/10/02 15:04:39;;;;;;;7.40;4.20;;;;;;;20.51;69.45;100034.69;435438;1255;139408;-64
2023/10/02 15:14:45;;;;;;;6.60;3.80;;;;;;;20.31;70.13;100037.20;435253;1256;139261;-63
2023/10/02 15:24:51;;;;;;;5.60;4.60;;;;;;;19.99;70.85;100034.25;437597;1256;139262;-59
2023/10/02 15:34:57;;;;;;;3.90;2.80;;;;;;;19.66;71.98;100035.38;435370;1254;139681;-61
2023/10/02 15:45:06;;;;;;;8.40;4.20;;;;;;;19.46;72.97;100040.44;435860;1254;140596;-64
2023/10/02 15:55:13;;;;;;;6.60;4.30;;;;;;;19.27;73.96;100031.45;435846;1252;139793;-62
2023/10/02 16:05:19;;;;;;;6.00;4.00;;;;;;;18.98;74.65;100025.88;435977;1254;139738;-64
2023/10/02 16:15:28;;;;;;;7.00;4.30;;;;;;;18.62;75.17;100022.42;435770;1255;139238;-60
2023/10/02 16:25:34;;;;;;;10.50;5.00;;;;;;;18.22;76.06;100022.49;436098;1255;140404;-60
2023/10/02 16:35:41;;;;;;;5.90;3.90;;;;;;;17.82;77.33;100009.80;435677;1254;140215;-59
2023/10/02 16:45:49;;;;;;;9.20;6.40;;;;;;;17.36;78.29;100010.05;435996;1254;139667;-60
2023/10/02 16:56:00;;;;;;;9.00;4.80;;;;;;;17.00;79.26;100014.61;435537;1254;139543;-60
2023/10/02 17:06:14;;;;;;;8.00;4.40;;;;;;;16.75;80.16;100009.08;435441;1256;139784;-60
2023/10/02 17:16:20;;;;;;;12.40;5.00;;;;;;;16.52;80.99;100008.98;437596;1251;140345;-60
2023/10/02 17:26:26;;;;;;;18.00;5.90;;;;;;;16.27;81.68;100007.52;435390;1254;141470;-62
2023/10/02 17:36:32;;;;;;;14.40;6.20;;;;;;;15.97;82.22;100010.79;437907;1256;140400;-61
2023/10/02 17:46:37;;;;;;;11.10;5.30;;;;;;;15.68;82.94;100015.02;436167;1254;141037;-61
2023/10/02 17:56:44;;;;;;;8.80;5.50;;;;;;;15.40;83.55;100020.31;436116;1256;140215;-61
2023/10/02 18:06:51;;;;;;;11.00;7.80;;;;;;;15.15;84.44;100023.97;436582;1255;140742;-61
2023/10/02 18:16:57;;;;;;;13.40;7.70;;;;;;;14.89;84.96;100029.61;435685;1255;139821;-61
2023/10/02 18:27:03;;;;;;;13.60;8.50;;;;;;;14.69;85.75;100024.20;435454;1251;140718;-61
2023/10/02 18:37:08;;;;;;;11.60;7.30;;;;;;;14.55;86.59;100023.10;436115;1251;140571;-60
2023/10/02 18:47:20;;;;;;;11.00;7.20;;;;;;;14.41;87.28;100017.11;436578;1255;140814;-59
2023/10/02 18:57:26;;;;;;;9.60;6.70;;;;;;;14.31;88.03;100013.96;436159;1255;140615;-61
2023/10/02 19:07:33;;;;;;;9.70;6.00;;;;;;;14.22;88.81;100010.21;436394;1256;140202;-65
2023/10/02 19:17:38;;;;;;;10.70;6.60;;;;;;;14.14;89.32;100008.84;435924;1255;139590;-66
2023/10/02 19:27:45;;;;;;;11.90;7.60;;;;;;;14.10;89.55;100006.48;435678;1255;144628;-67
2023/10/02 19:37:51;;;;;;;7.80;6.10;;;;;;;14.15;89.75;100001.71;436031;1255;139474;-67
2023/10/02 19:47:57;;;;;;;25.80;8.10;;;;;;;14.22;90.01;99992.08;435317;1257;140204;-67
2023/10/02 19:58:04;;;;;;;21.50;11.30;;;;;;;14.27;90.47;99984.65;435858;1256;139742;-67
2023/10/02 20:08:10;;;;;;;15.50;10.70;;;;;;;14.22;90.74;99967.92;435768;1255;140074;-68
2023/10/02 20:18:16;;;;;;;8.40;6.80;;;;;;;14.16;91.27;99957.61;435442;1256;140609;-66
2023/10/02 20:28:24;;;;;;;8.30;6.20;;;;;;;14.08;91.58;99961.73;435807;1253;139468;-67
2023/10/02 20:38:31;;;;;;;8.50;6.50;;;;;;;14.04;91.97;99958.90;437207;1256;138982;-67
2023/10/02 20:48:38;;;;;;;8.70;5.60;;;;;;;13.97;92.09;99955.79;435365;1257;139168;-66
2023/10/02 20:58:44;;;;;;;10.10;7.60;;;;;;;13.95;92.39;99943.83;435985;1251;139792;-67
2023/10/02 21:08:50;;;;;;;8.60;6.80;;;;;;;13.93;92.63;99942.56;435434;1256;139835;-66
2023/10/02 21:18:56;;;;;;;16.80;6.90;;;;;;;13.89;92.68;99944.83;435696;1256;139214;-63
2023/10/02 21:29:02;;;;;;;8.70;6.30;;;;;;;13.85;92.73;99940.10;435564;1256;139399;-72
2023/10/02 21:39:09;;;;;;;6.90;5.60;;;;;;;13.83;93.00;99933.77;439106;1253;140014;-74
2023/10/02 21:49:17;;;;;;;9.60;6.70;;;;;;;13.80;93.48;99924.29;438794;1255;139496;-73
2023/10/02 21:59:23;;;;;;;7.70;6.00;;;;;;;13.78;93.72;99911.60;438587;1251;139254;-74
2023/10/02 22:09:30;;;;;;;7.30;5.80;;;;;;;13.77;94.05;99897.98;437521;1256;138955;-73
2023/10/02 22:19:37;;;;;;;6.40;5.80;;;;;;;13.74;94.28;99888.67;438474;1256;138983;-73
2023/10/02 22:29:42;;;;;;;7.20;6.20;;;;;;;13.73;94.68;99885.21;438664;1255;139267;-73
2023/10/02 22:39:49;;;;;;;10.40;6.50;;;;;;;13.69;94.79;99882.88;438635;1256;139335;-73
2023/10/02 22:49:55;;;;;;;9.20;6.20;;;;;;;13.64;94.99;99875.70;438718;1257;140773;-73
2023/10/02 23:00:00;;;;;;;10.00;6.70;;;;;;;13.59;95.12;99873.73;438589;1256;139901;-73
2023/10/02 23:10:10;;;;;;;7.60;5.40;;;;;;;13.56;95.26;99872.02;438697;1251;139173;-74
2023/10/02 23:20:16;;;;;;;9.10;5.30;;;;;;;13.50;95.21;99871.37;439518;1251;139000;-73
2023/10/02 23:30:23;;;;;;;8.50;6.10;;;;;;;13.50;95.67;99864.02;438712;1251;140047;-74
2023/10/02 23:40:29;;;;;;;9.00;6.10;;;;;;;13.55;95.90;99854.88;438986;1251;139700;-74
2023/10/02 23:50:37;;;;;;;8.70;5.50;;;;;;;13.55;95.99;99838.50;439266;1251;139497;-74
